Hartland, North Dakota
Current Conditions -  °F | °C
As of 3:23 AM on Sunday 26 Oct 2014 (Local Time) from KMIB Reporting Station
Clear Clear  
Wind Chill: 32°   Ceiling: Unl
Heat Index: 39°   Visibility: 10mi
Dew Point: 32°   Wind: 10mph
Humidity: 75%   Direction: 120°ESE
Pressure: 29.75"   Gusts: NA
Location:  48.4159°N, 101.712°W
Report Text: KMIB 260823Z AUTO 12009KT 10SM CLR 04/00 A2975 RMK AO2
Loading
Personal Weather Stations






























Interactive Weather Map
Tropical Storm Tracking
New forecast layout! Learn more

10-Day Weather Forecast

Advertisements
Track Severe Weather on mobile